Terminal Aerodrome Forecast
Issued by NWS Shreveport, LA

Home | Current Version | Previous Version | Text Only | Print | Product List | Glossary On
Versions: 1 2 3 4 5 6 7 8 9 10 11 12 13 14 15 16 17 18 19
000
FTUS44 KSHV 242324
TAFLFK
TAF
KLFK 242324Z 2500/2524 10003KT P6SM SKC
      TEMPO 2508/2512 4SM BR
     FM251200 00000KT 4SM BR SKC
     FM251400 12005KT P6SM SKC
     FM251600 13007KT P6SM SCT030
     FM252100 12007KT P6SM SCT050=

USA.gov is the U.S. government's official web portal to all federal, state and local government web resources and services.